Frenchmans Bayou, Arkansas
Current Conditions -  °F | °C
As of 9:50 PM on Friday 19 Dec 2014 (Local Time) from KNQA Reporting Station
Overcast Overcast  
Wind Chill: 36°   Ceiling: 12000
Heat Index: 39°   Visibility: 10mi
Dew Point: 34°   Wind: 5mph
Humidity: 81%   Direction: 30°NNE
Pressure: 30.24"   Gusts: NA
Location:  35.47°N, 90.18°W
Report Text: KNQA 200350Z 03004KT 10SM OVC120 04/01 A3024
Loading
Personal Weather Stations






























Interactive Weather Map New forecast layout! Learn more

10-Day Weather Forecast

Advertisements
Track Severe Weather on mobile